Time;durP1;ratioP1;P1;durP2;ratioP2;P2;SDS_P1;SDS_P2;PMS_P1;PMS_P2;Temp;Humidity;BMP_temperature;BMP_pressure;BME280_temperature;BME280_humidity;BME280_pressure;Samples;Min_cycle;Max_cycle;Signal;HPM_P1;HPM_P2
2023/05/30 06:17:53;;;;;;;7.25;1.20;;;18.70;99.90;;;;;;4998337;23;20762;-68
2023/05/30 06:20:20;;;;;;;4.95;1.45;;;18.80;99.90;;;;;;4988990;28;20480;-68
2023/05/30 06:22:47;;;;;;;4.13;1.10;;;19.30;99.90;;;;;;4993179;28;20696;-68
2023/05/30 06:25:14;;;;;;;6.43;1.05;;;19.20;99.90;;;;;;4995122;28;20226;-68
2023/05/30 06:27:40;;;;;;;3.40;1.40;;;19.50;99.60;;;;;;4996734;28;20234;-68
2023/05/30 06:30:08;;;;;;;3.42;1.33;;;20.20;98.30;;;;;;4996709;28;20673;-68
2023/05/30 06:32:35;;;;;;;6.47;1.27;;;19.00;98.70;;;;;;4996312;28;20216;-68
2023/05/30 06:35:04;;;;;;;4.90;1.40;;;18.10;99.60;;;;;;4995912;28;20230;-67
2023/05/30 06:37:30;;;;;;;9.00;1.70;;;17.40;99.90;;;;;;4996680;28;20615;-68
2023/05/30 06:39:57;;;;;;;6.80;1.80;;;16.50;99.90;;;;;;4996851;28;20202;-68
2023/05/30 06:42:24;;;;;;;3.97;1.20;;;16.70;99.90;;;;;;4995465;28;20216;-68
2023/05/30 06:44:51;;;;;;;5.00;1.43;;;17.60;99.90;;;;;;4996580;28;20329;-68
2023/05/30 06:47:18;;;;;;;2.87;1.03;;;17.60;99.90;;;;;;4996443;28;20241;-68
2023/05/30 06:49:44;;;;;;;3.97;1.67;;;17.20;99.90;;;;;;4996365;28;20210;-68
2023/05/30 06:52:12;;;;;;;11.23;1.47;;;17.70;99.90;;;;;;4996252;28;20296;-68
2023/05/30 06:54:39;;;;;;;3.03;1.40;;;17.70;99.90;;;;;;4996466;28;20227;-68
2023/05/30 06:57:07;;;;;;;5.53;1.40;;;17.10;99.90;;;;;;4996450;28;20210;-68
2023/05/30 06:59:34;;;;;;;4.13;1.20;;;16.70;99.90;;;;;;4996166;28;20661;-68
2023/05/30 07:02:02;;;;;;;5.60;1.30;;;16.10;99.90;;;;;;4996362;28;20214;-68
2023/05/30 07:04:28;;;;;;;9.33;1.43;;;16.10;99.90;;;;;;4995997;28;20318;-68
2023/05/30 07:06:56;;;;;;;3.80;1.53;;;16.60;99.90;;;;;;4996185;28;20210;-67
2023/05/30 07:09:25;;;;;;;7.63;1.50;;;17.50;99.90;;;;;;4996046;28;20237;-68
2023/05/30 07:11:51;;;;;;;5.73;1.47;;;17.80;99.90;;;;;;4996142;28;20218;-68
2023/05/30 07:14:18;;;;;;;6.97;1.65;;;18.20;99.90;;;;;;4996160;28;20227;-68
2023/05/30 07:16:45;;;;;;;7.20;1.35;;;18.70;99.60;;;;;;4995992;28;20216;-67
2023/05/30 07:19:13;;;;;;;4.07;1.30;;;18.80;99.30;;;;;;4995846;28;20588;-68
2023/05/30 07:21:39;;;;;;;6.53;1.30;;;19.50;98.70;;;;;;4995127;28;20233;-69
2023/05/30 07:24:06;;;;;;;5.20;1.50;;;20.30;97.90;;;;;;4975429;28;20230;-69
2023/05/30 07:26:35;;;;;;;4.13;1.40;;;19.70;97.70;;;;;;4975844;28;20684;-69
2023/05/30 07:29:01;;;;;;;2.50;1.20;;;19.50;97.90;;;;;;4975962;28;20711;-69
2023/05/30 07:31:28;;;;;;;6.55;1.60;;;19.50;98.40;;;;;;4995422;28;20760;-69
2023/05/30 07:33:55;;;;;;;8.23;1.63;;;19.80;97.40;;;;;;4957392;28;20322;-69
2023/05/30 07:36:22;;;;;;;6.85;1.73;;;19.40;97.80;;;;;;4956830;29;20214;-69
2023/05/30 07:38:49;;;;;;;4.88;1.42;;;18.90;97.70;;;;;;4956436;28;20571;-67
2023/05/30 07:41:16;;;;;;;6.50;1.80;;;18.60;98.10;;;;;;4956448;28;20212;-67
2023/05/30 07:43:44;;;;;;;5.63;1.77;;;18.20;98.50;;;;;;4956661;28;20208;-67
2023/05/30 07:46:11;;;;;;;5.50;1.42;;;18.00;98.50;;;;;;4956674;29;20310;-67
2023/05/30 07:48:37;;;;;;;6.65;1.58;;;18.10;98.80;;;;;;4956411;28;20663;-68
2023/05/30 07:51:05;;;;;;;3.20;1.33;;;18.80;98.80;;;;;;4956348;28;20751;-68
2023/05/30 07:53:32;;;;;;;6.72;1.80;;;19.20;98.10;;;;;;4956541;29;20211;-68
2023/05/30 07:55:59;;;;;;;6.43;1.27;;;20.30;97.30;;;;;;4956726;29;20220;-68
2023/05/30 07:58:26;;;;;;;4.78;1.73;;;21.10;96.00;;;;;;4956530;29;20208;-68
2023/05/30 08:00:55;;;;;;;5.03;1.35;;;21.10;96.10;;;;;;4956493;29;20234;-68
2023/05/30 08:03:22;;;;;;;6.35;1.52;;;21.40;95.60;;;;;;4956532;29;20295;-67
2023/05/30 08:05:51;;;;;;;9.60;1.67;;;21.00;95.50;;;;;;4956313;28;20208;-68
2023/05/30 08:08:17;;;;;;;5.45;1.60;;;21.00;95.90;;;;;;4956221;28;20634;-68
2023/05/30 08:10:44;;;;;;;4.72;1.70;;;21.10;95.80;;;;;;4956161;28;20570;-68
2023/05/30 08:13:12;;;;;;;7.38;1.75;;;21.90;95.20;;;;;;4956328;29;20219;-68
2023/05/30 08:15:39;;;;;;;4.07;1.40;;;21.40;95.30;;;;;;4956029;28;20275;-67
2023/05/30 08:18:08;;;;;;;4.65;1.98;;;21.50;95.10;;;;;;4955933;29;20769;-68
2023/05/30 08:20:35;;;;;;;6.82;1.67;;;21.50;95.20;;;;;;4956448;28;20212;-68
2023/05/30 08:23:03;;;;;;;5.22;1.75;;;21.10;94.90;;;;;;4956041;29;20214;-69
2023/05/30 08:25:32;;;;;;;6.13;1.48;;;21.10;95.10;;;;;;4955985;28;20266;-68
2023/05/30 08:27:59;;;;;;;2.47;1.30;;;21.60;95.10;;;;;;4955908;28;20274;-68
2023/05/30 08:30:26;;;;;;;4.15;1.50;;;22.00;93.80;;;;;;4956002;29;20582;-69
2023/05/30 08:32:53;;;;;;;5.53;1.75;;;21.70;94.90;;;;;;4956041;28;20579;-70
2023/05/30 08:35:21;;;;;;;7.85;1.77;;;21.90;94.20;;;;;;4955728;28;20314;-68
2023/05/30 08:37:48;;;;;;;6.22;1.65;;;21.30;94.40;;;;;;4955867;28;20204;-68
2023/05/30 08:40:16;;;;;;;6.10;1.83;;;21.10;95.40;;;;;;4955357;29;20570;-67
2023/05/30 08:42:43;;;;;;;8.00;1.83;;;21.60;94.80;;;;;;4955216;28;20208;-67
2023/05/30 08:45:11;;;;;;;4.60;1.50;;;21.80;94.90;;;;;;4954470;28;20232;-67
2023/05/30 08:47:38;;;;;;;6.25;2.22;;;21.80;94.30;;;;;;4954486;28;20686;-68
2023/05/30 08:50:07;;;;;;;8.10;1.80;;;21.60;94.80;;;;;;4963713;28;21026;-69
2023/05/30 08:52:36;;;;;;;5.35;1.77;;;21.40;94.60;;;;;;4973082;28;20214;-70
2023/05/30 08:55:10;;;;;;;5.68;1.98;;;21.40;94.60;;;;;;4990944;28;20698;-70
2023/05/30 08:57:44;;;;;;;7.60;2.13;;;21.00;95.00;;;;;;4978575;28;20250;-69
2023/05/30 09:00:13;;;;;;;3.40;1.63;;;20.90;95.00;;;;;;4959138;28;20694;-69
2023/05/30 09:02:42;;;;;;;6.53;1.70;;;21.00;94.70;;;;;;4972516;28;20207;-71
2023/05/30 09:05:10;;;;;;;7.63;1.70;;;20.70;94.80;;;;;;4972632;28;20231;-68
2023/05/30 09:07:40;;;;;;;5.50;1.50;;;20.60;95.40;;;;;;4979089;28;20204;-70
2023/05/30 09:10:07;;;;;;;5.18;1.70;;;20.70;95.00;;;;;;4957984;28;20231;-71
2023/05/30 09:12:35;;;;;;;4.65;1.48;;;20.50;95.00;;;;;;4972389;28;20196;-71
2023/05/30 09:15:02;;;;;;;4.07;1.67;;;20.20;95.60;;;;;;4972567;28;20234;-69
2023/05/30 09:17:29;;;;;;;4.93;1.80;;;20.60;94.90;;;;;;4966735;28;20212;-71
2023/05/30 09:19:57;;;;;;;3.47;1.50;;;20.70;94.70;;;;;;4955850;28;20203;-69
2023/05/30 09:22:26;;;;;;;4.80;1.55;;;21.00;93.70;;;;;;4972608;28;20204;-69
2023/05/30 09:25:00;;;;;;;2.90;1.50;;;21.20;94.10;;;;;;4973078;28;20285;-70
2023/05/30 09:27:28;;;;;;;4.13;1.60;;;21.10;94.50;;;;;;4956372;28;20246;-70
2023/05/30 09:29:55;;;;;;;8.18;1.58;;;20.90;94.40;;;;;;4980800;28;20705;-72
2023/05/30 09:32:28;;;;;;;5.47;1.90;;;20.10;94.60;;;;;;4976324;28;20213;-72
2023/05/30 09:34:57;;;;;;;3.00;1.60;;;20.40;94.30;;;;;;4991132;28;20262;-70
2023/05/30 09:37:24;;;;;;;2.78;1.70;;;20.40;94.00;;;;;;4961342;28;20298;-68
2023/05/30 09:40:11;;;;;;;6.13;1.63;;;20.30;94.90;;;;;;4954713;29;20218;-69
2023/05/30 09:42:44;;;;;;;5.05;1.55;;;20.20;94.30;;;;;;4954638;29;20207;-68
2023/05/30 09:45:13;;;;;;;3.10;1.38;;;19.50;94.50;;;;;;4956410;28;20223;-68
2023/05/30 09:47:41;;;;;;;7.63;1.92;;;19.50;95.20;;;;;;4954922;28;20263;-68
2023/05/30 09:50:09;;;;;;;4.75;2.05;;;19.60;95.40;;;;;;4954804;28;20240;-67
2023/05/30 09:52:37;;;;;;;3.88;1.67;;;20.00;95.80;;;;;;4954959;29;20204;-68
2023/05/30 09:55:05;;;;;;;4.07;1.60;;;19.60;95.80;;;;;;4954283;28;20250;-67
2023/05/30 09:57:36;;;;;;;3.92;1.90;;;19.90;95.50;;;;;;4957134;28;20251;-68
2023/05/30 10:00:11;;;;;;;3.17;1.60;;;19.60;95.60;;;;;;4958644;28;20262;-68
2023/05/30 10:02:39;;;;;;;4.47;2.00;;;19.30;95.90;;;;;;4958343;29;20203;-67
2023/05/30 10:05:08;;;;;;;5.95;1.90;;;19.30;95.90;;;;;;4957566;28;20232;-67
2023/05/30 10:07:35;;;;;;;9.80;2.60;;;18.90;96.30;;;;;;4957466;28;20571;-68
2023/05/30 10:10:04;;;;;;;4.07;2.03;;;18.40;97.40;;;;;;4957875;28;20695;-68
2023/05/30 10:12:31;;;;;;;3.70;1.87;;;18.40;97.60;;;;;;4957488;29;20218;-68
2023/05/30 10:15:00;;;;;;;7.70;2.40;;;18.40;97.50;;;;;;4957650;28;20286;-67
2023/05/30 10:17:31;;;;;;;6.13;2.10;;;18.00;97.90;;;;;;4957721;28;20212;-67
2023/05/30 10:20:02;;;;;;;3.47;1.97;;;17.60;97.40;;;;;;4957832;29;20208;-68
2023/05/30 10:22:30;;;;;;;5.13;1.80;;;17.50;98.90;;;;;;4957804;29;20215;-67
2023/05/30 10:25:00;;;;;;;7.20;1.67;;;17.60;98.00;;;;;;4957793;29;20283;-67
2023/05/30 10:27:31;;;;;;;4.73;2.23;;;17.70;97.80;;;;;;4957960;28;20204;-67
2023/05/30 10:30:05;;;;;;;6.33;2.07;;;17.80;97.90;;;;;;4957687;28;20232;-68
2023/05/30 10:32:35;;;;;;;5.57;2.27;;;17.70;98.20;;;;;;4957447;28;20208;-67
2023/05/30 10:35:11;;;;;;;5.17;1.87;;;17.80;98.60;;;;;;4957202;29;20232;-67
2023/05/30 10:37:38;;;;;;;8.67;2.33;;;18.20;98.60;;;;;;4957644;29;20208;-67
2023/05/30 10:40:24;;;;;;;5.47;2.17;;;18.30;98.90;;;;;;4957615;28;20228;-68
2023/05/30 10:43:06;;;;;;;8.77;2.00;;;18.60;98.80;;;;;;4957265;29;20612;-69
2023/05/30 10:45:46;;;;;;;4.60;2.00;;;18.80;97.90;;;;;;4956918;28;20231;-69
2023/05/30 10:48:22;;;;;;;6.50;2.57;;;18.40;97.90;;;;;;4957169;28;20212;-68
2023/05/30 10:50:51;;;;;;;7.57;2.30;;;18.20;98.00;;;;;;4957011;29;20574;-69
2023/05/30 10:53:19;;;;;;;3.73;2.00;;;18.00;98.30;;;;;;4957399;29;20212;-69
2023/05/30 10:55:47;;;;;;;6.17;2.50;;;17.90;98.90;;;;;;4957179;29;20235;-68
2023/05/30 10:58:36;;;;;;;3.43;2.00;;;17.90;99.20;;;;;;4956820;28;20216;-68
2023/05/30 11:01:27;;;;;;;5.93;2.47;;;18.00;98.60;;;;;;4956772;29;20204;-68
2023/05/30 11:04:02;;;;;;;4.97;2.30;;;18.30;99.00;;;;;;4956239;28;20238;-69
2023/05/30 11:06:33;;;;;;;2.70;1.90;;;18.60;98.70;;;;;;4956246;28;20208;-69
2023/05/30 11:09:12;;;;;;;4.47;2.30;;;18.60;99.40;;;;;;4955534;28;20242;-68
2023/05/30 11:11:40;;;;;;;8.43;2.80;;;18.60;98.80;;;;;;4956255;29;20212;-68
2023/05/30 11:14:08;;;;;;;5.47;2.30;;;18.70;98.00;;;;;;4955966;28;20235;-69
2023/05/30 11:16:48;;;;;;;5.23;2.33;;;18.70;98.80;;;;;;4955966;28;20204;-69
2023/05/30 11:19:15;;;;;;;9.90;2.67;;;18.70;98.80;;;;;;4956529;29;20207;-68
2023/05/30 11:22:02;;;;;;;4.30;2.23;;;18.80;98.70;;;;;;4956430;28;20218;-69
2023/05/30 11:24:30;;;;;;;6.03;2.50;;;18.80;98.30;;;;;;4956606;29;20292;-68
2023/05/30 11:27:08;;;;;;;6.13;2.50;;;18.70;98.50;;;;;;4956188;29;20208;-68
2023/05/30 11:29:36;;;;;;;5.20;2.70;;;18.70;98.40;;;;;;4956440;28;20241;-68
2023/05/30 11:32:05;;;;;;;5.77;2.47;;;18.80;98.50;;;;;;4956427;28;20714;-68
2023/05/30 11:34:33;;;;;;;4.53;2.20;;;18.90;98.70;;;;;;4956439;29;20228;-69
2023/05/30 11:37:00;;;;;;;5.93;2.50;;;18.80;99.70;;;;;;4956598;28;20204;-68
2023/05/30 11:39:27;;;;;;;4.37;2.27;;;18.90;97.90;;;;;;4956768;28;20212;-68
2023/05/30 11:41:55;;;;;;;4.97;2.10;;;18.80;98.30;;;;;;4956520;28;20297;-68
2023/05/30 11:44:23;;;;;;;5.30;2.10;;;19.00;98.60;;;;;;4955790;28;20266;-69
2023/05/30 11:47:04;;;;;;;7.70;2.40;;;18.80;98.20;;;;;;4955626;28;20212;-68
2023/05/30 11:49:32;;;;;;;5.73;2.27;;;18.80;98.30;;;;;;4955610;29;20231;-69
2023/05/30 11:52:00;;;;;;;4.13;2.13;;;18.60;98.10;;;;;;4956319;29;20210;-68
2023/05/30 11:54:27;;;;;;;8.10;2.63;;;18.50;98.80;;;;;;4956163;29;20228;-68
2023/05/30 11:56:55;;;;;;;5.97;2.60;;;18.50;99.10;;;;;;4956496;28;20204;-70
2023/05/30 11:59:23;;;;;;;4.40;2.27;;;18.50;98.30;;;;;;4956227;28;20215;-70
2023/05/30 12:02:01;;;;;;;6.03;2.20;;;18.60;98.20;;;;;;4956041;28;20662;-69
2023/05/30 12:04:30;;;;;;;6.97;2.37;;;18.80;98.50;;;;;;4955568;28;20232;-70
2023/05/30 12:07:04;;;;;;;4.23;2.20;;;18.90;98.40;;;;;;4955975;28;20572;-70
2023/05/30 12:09:37;;;;;;;5.23;2.63;;;18.90;98.00;;;;;;4955875;29;20234;-69
2023/05/30 12:12:05;;;;;;;3.97;2.53;;;18.70;98.50;;;;;;4955940;28;20287;-70
2023/05/30 12:14:39;;;;;;;4.87;2.57;;;18.60;98.30;;;;;;4956027;28;20288;-70
2023/05/30 12:17:15;;;;;;;4.40;2.40;;;18.60;98.70;;;;;;4955465;28;20216;-72
2023/05/30 12:19:43;;;;;;;7.13;3.07;;;18.80;98.90;;;;;;4955521;28;20215;-69
2023/05/30 12:22:12;;;;;;;7.37;2.30;;;19.00;98.80;;;;;;4955495;29;20204;-70
2023/05/30 12:24:39;;;;;;;6.87;2.73;;;19.10;98.90;;;;;;4955600;29;20323;-70
2023/05/30 12:27:07;;;;;;;6.23;2.50;;;19.10;98.60;;;;;;4955498;29;20214;-70
2023/05/30 12:29:35;;;;;;;6.15;2.88;;;19.10;98.20;;;;;;4955666;29;20243;-70
2023/05/30 12:32:02;;;;;;;4.97;2.53;;;19.20;97.50;;;;;;4955564;28;20651;-69
2023/05/30 12:34:39;;;;;;;5.43;2.50;;;19.30;97.40;;;;;;4955214;29;20234;-69
2023/05/30 12:37:11;;;;;;;6.05;2.70;;;19.30;98.40;;;;;;4955268;29;20223;-69
2023/05/30 12:39:45;;;;;;;5.18;2.05;;;19.30;98.10;;;;;;4952750;28;20690;-69
2023/05/30 12:42:12;;;;;;;5.22;2.13;;;19.60;98.70;;;;;;4970782;28;20229;-70
2023/05/30 12:44:47;;;;;;;5.93;2.35;;;19.90;98.30;;;;;;4954071;28;20715;-69
2023/05/30 12:47:14;;;;;;;5.10;2.47;;;20.00;97.60;;;;;;4968192;28;20203;-69
2023/05/30 12:49:41;;;;;;;4.13;2.10;;;20.00;98.00;;;;;;4974461;28;20227;-69
2023/05/30 12:52:08;;;;;;;5.75;2.35;;;20.00;97.60;;;;;;4974522;28;20685;-69
2023/05/30 12:54:37;;;;;;;5.63;2.58;;;20.00;97.80;;;;;;4974437;28;20710;-69
2023/05/30 12:57:05;;;;;;;4.45;2.28;;;19.80;97.90;;;;;;4974545;28;20573;-69
2023/05/30 12:59:32;;;;;;;2.83;1.83;;;19.80;97.20;;;;;;4983905;28;20693;-69
2023/05/30 13:01:59;;;;;;;5.05;2.10;;;19.50;97.30;;;;;;4973866;28;20667;-70
2023/05/30 13:04:26;;;;;;;5.22;2.22;;;19.40;97.80;;;;;;4974106;28;20227;-71
2023/05/30 13:06:53;;;;;;;3.47;2.30;;;19.60;97.30;;;;;;4974151;28;20680;-69
2023/05/30 13:09:20;;;;;;;3.72;2.13;;;19.80;97.20;;;;;;4973714;28;20237;-69
2023/05/30 13:11:49;;;;;;;4.90;2.22;;;19.90;97.40;;;;;;4974520;28;20254;-67
2023/05/30 13:14:17;;;;;;;3.67;1.58;;;20.10;97.10;;;;;;4974222;28;20230;-68
2023/05/30 13:16:44;;;;;;;3.35;1.50;;;20.00;97.10;;;;;;4974308;28;20214;-67
2023/05/30 13:19:11;;;;;;;4.40;2.05;;;19.90;97.20;;;;;;4973411;28;20211;-67
2023/05/30 13:21:39;;;;;;;3.17;1.73;;;19.90;97.00;;;;;;4968454;28;20221;-67
2023/05/30 13:24:06;;;;;;;3.70;1.73;;;19.80;96.80;;;;;;4972821;28;20223;-68
2023/05/30 13:26:33;;;;;;;2.95;1.75;;;19.90;97.30;;;;;;4977136;28;20198;-69
2023/05/30 13:29:03;;;;;;;2.78;1.90;;;20.00;97.10;;;;;;4991601;28;20212;-66
2023/05/30 13:31:30;;;;;;;4.93;2.20;;;20.30;96.50;;;;;;4970481;28;20666;-68
2023/05/30 13:33:57;;;;;;;5.53;1.85;;;20.30;96.10;;;;;;4972664;28;20227;-69
2023/05/30 13:36:25;;;;;;;2.95;1.80;;;20.20;96.80;;;;;;4989210;28;20202;-71
2023/05/30 13:38:52;;;;;;;6.05;1.83;;;20.30;96.90;;;;;;4953942;28;20303;-71
2023/05/30 13:41:19;;;;;;;4.68;1.85;;;20.30;96.50;;;;;;4973402;28;20215;-69
2023/05/30 13:43:46;;;;;;;2.85;1.67;;;20.10;96.60;;;;;;4972449;28;20227;-70
2023/05/30 13:46:15;;;;;;;4.18;1.80;;;20.00;97.00;;;;;;4973682;28;20207;-68
2023/05/30 13:48:42;;;;;;;4.20;2.25;;;20.20;96.30;;;;;;4973041;28;20207;-68
2023/05/30 13:51:09;;;;;;;4.07;1.90;;;20.30;96.40;;;;;;4971805;28;20709;-67
2023/05/30 13:53:36;;;;;;;3.47;1.60;;;20.50;96.30;;;;;;4972539;28;20219;-70
2023/05/30 13:56:03;;;;;;;3.55;1.60;;;20.40;96.40;;;;;;4972534;28;20212;-68
2023/05/30 13:58:30;;;;;;;6.03;1.60;;;20.50;96.50;;;;;;4972210;28;20210;-67
2023/05/30 14:00:57;;;;;;;3.95;1.77;;;20.30;96.50;;;;;;4972347;28;20211;-66
2023/05/30 14:03:25;;;;;;;4.30;1.80;;;20.50;96.60;;;;;;4972713;28;20207;-69
2023/05/30 14:05:52;;;;;;;5.10;1.80;;;20.50;96.50;;;;;;4972288;28;20301;-68
2023/05/30 14:08:20;;;;;;;4.03;1.80;;;20.70;97.10;;;;;;4972803;28;20207;-66
2023/05/30 14:10:47;;;;;;;3.40;1.70;;;20.80;96.50;;;;;;4972702;28;20246;-67
2023/05/30 14:13:14;;;;;;;2.28;1.58;;;20.80;95.80;;;;;;4972125;28;20289;-68
2023/05/30 14:15:42;;;;;;;3.72;1.50;;;20.70;96.00;;;;;;4972353;28;20227;-67
2023/05/30 14:18:09;;;;;;;6.13;1.90;;;20.50;96.30;;;;;;4972109;28;20282;-68
2023/05/30 14:20:37;;;;;;;4.18;1.88;;;20.60;96.60;;;;;;4971874;28;20239;-69
2023/05/30 14:23:04;;;;;;;6.45;2.15;;;20.60;96.60;;;;;;4972735;28;20211;-66
2023/05/30 14:25:31;;;;;;;4.95;2.00;;;20.50;96.60;;;;;;4955446;28;20242;-67
2023/05/30 14:27:58;;;;;;;3.42;1.67;;;20.60;96.70;;;;;;4973539;28;20203;-68
2023/05/30 14:30:25;;;;;;;3.97;2.13;;;20.80;96.80;;;;;;4973534;28;20682;-66
2023/05/30 14:32:52;;;;;;;5.55;1.88;;;20.80;96.60;;;;;;4974005;28;20207;-70
2023/05/30 14:35:19;;;;;;;5.88;2.28;;;20.70;96.60;;;;;;4973521;28;20234;-71
2023/05/30 14:37:47;;;;;;;3.05;2.00;;;20.70;96.90;;;;;;4973454;28;20558;-68
2023/05/30 14:40:14;;;;;;;9.32;2.10;;;20.90;97.30;;;;;;4973467;28;20208;-68
2023/05/30 14:42:41;;;;;;;4.30;2.10;;;20.90;96.60;;;;;;4973669;28;20289;-70
2023/05/30 14:45:09;;;;;;;3.15;1.85;;;21.10;96.90;;;;;;4977009;28;20231;-70
2023/05/30 14:47:36;;;;;;;4.30;2.05;;;21.10;96.80;;;;;;4977338;28;20207;-68
2023/05/30 14:50:04;;;;;;;5.82;1.80;;;21.20;97.00;;;;;;4977025;28;20322;-69
2023/05/30 14:52:31;;;;;;;3.83;2.00;;;21.10;96.70;;;;;;4977250;28;20286;-68
2023/05/30 14:55:00;;;;;;;2.90;2.45;;;21.20;97.00;;;;;;4976846;28;20227;-71
2023/05/30 14:57:27;;;;;;;4.40;2.25;;;21.20;96.90;;;;;;4976912;28;20215;-68
2023/05/30 14:59:54;;;;;;;3.67;1.98;;;21.10;96.50;;;;;;4977058;28;20285;-68
2023/05/30 15:02:21;;;;;;;4.15;2.03;;;21.20;96.80;;;;;;4976837;28;20206;-69
2023/05/30 15:04:47;;;;;;;5.00;2.13;;;21.00;97.10;;;;;;4976844;28;20227;-67
2023/05/30 15:07:14;;;;;;;3.30;1.80;;;21.10;97.20;;;;;;4976907;28;20217;-68
2023/05/30 15:09:41;;;;;;;3.72;1.98;;;21.00;97.30;;;;;;4976753;28;20294;-69
2023/05/30 15:12:09;;;;;;;3.65;1.60;;;21.10;96.80;;;;;;4976644;28;20207;-70
2023/05/30 15:14:36;;;;;;;4.05;1.83;;;21.20;97.20;;;;;;4964462;28;20228;-69
2023/05/30 15:17:04;;;;;;;3.15;1.75;;;21.30;97.40;;;;;;4975528;28;20215;-68
2023/05/30 15:19:31;;;;;;;5.90;1.90;;;21.30;97.40;;;;;;4980728;28;20561;-68
2023/05/30 15:21:58;;;;;;;4.03;1.80;;;21.20;97.20;;;;;;4995569;28;20669;-68
2023/05/30 15:24:25;;;;;;;4.15;1.88;;;21.30;97.20;;;;;;4968610;28;20228;-68
2023/05/30 15:26:52;;;;;;;4.93;2.15;;;21.20;97.60;;;;;;4956855;28;20223;-68
2023/05/30 15:29:20;;;;;;;4.70;2.17;;;21.00;97.40;;;;;;4957062;29;20608;-69
2023/05/30 15:31:47;;;;;;;6.35;2.05;;;20.90;97.00;;;;;;4967358;28;20226;-68
2023/05/30 15:34:18;;;;;;;3.08;1.80;;;20.90;97.30;;;;;;4971003;28;20232;-68
2023/05/30 15:36:44;;;;;;;5.10;2.03;;;20.90;97.50;;;;;;4956689;29;20219;-68
2023/05/30 15:39:11;;;;;;;2.92;1.70;;;20.90;97.80;;;;;;4956389;28;20563;-68
2023/05/30 15:41:38;;;;;;;3.08;1.65;;;21.10;98.00;;;;;;4956851;28;20211;-68
2023/05/30 15:44:05;;;;;;;9.27;2.92;;;21.20;97.00;;;;;;4956111;28;20228;-67
2023/05/30 15:46:33;;;;;;;4.53;1.60;;;21.30;96.90;;;;;;4957365;28;20270;-69
2023/05/30 15:49:00;;;;;;;5.30;2.10;;;21.30;97.10;;;;;;4957019;28;20690;-67
2023/05/30 15:51:28;;;;;;;3.75;1.63;;;21.10;97.40;;;;;;4957578;28;20324;-70
2023/05/30 15:53:54;;;;;;;4.22;2.53;;;21.10;97.20;;;;;;4958874;28;20255;-68
2023/05/30 15:56:22;;;;;;;4.43;2.17;;;21.00;97.10;;;;;;4961533;28;20254;-68
2023/05/30 15:58:49;;;;;;;3.50;1.70;;;20.80;97.50;;;;;;4968825;28;20265;-67
2023/05/30 16:01:15;;;;;;;5.65;2.20;;;20.90;97.80;;;;;;4975149;28;20203;-68
2023/05/30 16:03:44;;;;;;;4.35;2.15;;;21.10;97.70;;;;;;4975447;28;20289;-67
2023/05/30 16:06:11;;;;;;;6.63;2.17;;;21.00;97.40;;;;;;4989504;28;20202;-68
2023/05/30 16:08:38;;;;;;;3.00;1.70;;;21.00;97.20;;;;;;4994276;28;20298;-67
2023/05/30 16:11:04;;;;;;;7.15;2.10;;;21.10;97.60;;;;;;4978295;28;20226;-68
2023/05/30 16:13:31;;;;;;;4.57;1.92;;;20.90;97.90;;;;;;4981734;28;20634;-67
2023/05/30 16:15:58;;;;;;;6.60;1.80;;;21.00;97.40;;;;;;4986592;28;20209;-68
2023/05/30 16:18:25;;;;;;;3.28;1.67;;;20.90;97.70;;;;;;4994274;28;20776;-68
2023/05/30 16:20:53;;;;;;;4.82;1.80;;;20.90;97.60;;;;;;4994961;28;20216;-69
2023/05/30 16:23:20;;;;;;;5.78;1.95;;;21.00;97.60;;;;;;4989663;28;20211;-68
2023/05/30 16:25:47;;;;;;;4.88;1.80;;;21.10;97.80;;;;;;4974999;28;20777;-69
2023/05/30 16:28:14;;;;;;;4.00;1.85;;;21.00;97.80;;;;;;4975290;28;20210;-68
2023/05/30 16:30:41;;;;;;;4.60;1.88;;;21.00;97.50;;;;;;4975117;28;20264;-68
2023/05/30 16:33:08;;;;;;;6.32;1.90;;;20.90;97.30;;;;;;4974752;28;20229;-70
2023/05/30 16:35:35;;;;;;;7.43;1.73;;;20.70;97.40;;;;;;4974681;28;20587;-69
2023/05/30 16:38:03;;;;;;;5.38;2.20;;;20.70;97.80;;;;;;4974784;28;20211;-70
2023/05/30 16:40:30;;;;;;;3.97;1.73;;;20.80;97.50;;;;;;4974654;28;20305;-70
2023/05/30 16:42:57;;;;;;;6.40;2.25;;;20.90;97.50;;;;;;4974570;28;20206;-70
2023/05/30 16:45:24;;;;;;;4.95;2.00;;;20.90;97.30;;;;;;4974595;28;20571;-69
2023/05/30 16:47:50;;;;;;;4.90;1.70;;;21.00;97.50;;;;;;4974385;28;20325;-69
2023/05/30 16:50:17;;;;;;;6.10;1.77;;;21.10;97.60;;;;;;4975970;28;20210;-70
2023/05/30 16:52:44;;;;;;;5.97;1.90;;;21.20;97.70;;;;;;4993237;28;20207;-69
2023/05/30 16:55:12;;;;;;;4.03;1.80;;;21.20;97.80;;;;;;4955255;28;20651;-69
2023/05/30 16:57:39;;;;;;;3.88;1.85;;;21.20;97.20;;;;;;4955015;28;20295;-70
2023/05/30 17:00:08;;;;;;;1.90;1.38;;;21.00;97.40;;;;;;4955356;29;20681;-69
2023/05/30 17:02:35;;;;;;;4.55;1.98;;;21.00;97.60;;;;;;4955053;28;20560;-68
2023/05/30 17:05:02;;;;;;;4.85;1.63;;;20.90;97.80;;;;;;4973497;28;20298;-69
2023/05/30 17:07:29;;;;;;;3.70;1.80;;;20.80;97.50;;;;;;4973348;28;20637;-68
2023/05/30 17:09:55;;;;;;;4.72;1.73;;;20.90;97.60;;;;;;4974280;28;20266;-69
2023/05/30 17:12:24;;;;;;;3.90;2.17;;;21.00;97.10;;;;;;4974445;28;20326;-69
2023/05/30 17:14:50;;;;;;;4.68;1.88;;;21.10;97.80;;;;;;4973817;28;20257;-68
2023/05/30 17:17:17;;;;;;;4.55;2.40;;;21.10;98.80;;;;;;4974244;28;20223;-67
2023/05/30 17:19:44;;;;;;;7.70;2.30;;;21.00;99.90;;;;;;4960656;28;20533;-68
